EWR weather

Newark Liberty International Airport
Newark, New Jersey, United States

Public forecast

Using degrees Fahrenheit for public forecast. Weather courtesy of forecast.io.

METAR (pilot weather report)

Retrieved 2018/12/13 02:51 UTC (27 minutes ago):

KEWR 130251Z 00000KT 10SM FEW040 BKN220 OVC260 02/M05 A3025 RMK AO2 SLP243 T00171050 51010

TAF (pilot weather forecast)

Forecast is more than 12 hours old.

Retrieved 2018/12/12 00:46 UTC (1 day ago):

TAF KEWR 122344Z 1300/1406 VRB03KT P6SM FEW035 BKN250 FM130600 06006KT P6SM SCT035 BKN150 FM131200 08007KT 5SM -SN BR BKN025 OVC040 FM131500 09008KT 6SM -RA OVC025 FM131700 10010KT 6SM -DZ OVC020 FM140000 07007KT P6SM OVC020